| time (UTC) | temp C | wind direction | speed KPH | gust KPH | rain 1hr cm | rain 24hr cm | rain mn cm | humidity % | barometer mb |
| 20260507133025 | 21 | 269 | 0.0 | 321.9 | 0.00 | 0.00 | 0.18 | 71 | 122.4 |
| 20260507132525 | 21 | 259 | 0.0 | 321.9 | 0.00 | 0.00 | 0.18 | 72 | 122.2 |
| 20260507132024 | 21 | 249 | 0.0 | 321.9 | 0.00 | 0.00 | 0.18 | 72 | 121.9 |
| 20260507131523 | 20 | 247 | 0.0 | 321.9 | 0.00 | 0.00 | 0.18 | 72 | 121.8 |
| 20260507131022 | 20 | 241 | 0.0 | 321.9 | 0.00 | 0.00 | 0.18 | 72 | 121.7 |
| 20260507130522 | 20 | 241 | 0.0 | 321.9 | 0.00 | 0.00 | 0.18 | 71 | 121.7 |
| 20260507130021 | 20 | 244 | 0.0 | 321.9 | 0.00 | 0.00 | 0.18 | 71 | 121.7 |
| 20260507123933 | 20 | 257 | 0.0 | 321.9 | 0.00 | 0.00 | 0.18 | 72 | 122.0 |
| 20260507123432 | 20 | 245 | 0.0 | 321.9 | 0.00 | 0.00 | 0.18 | 69 | 121.9 |
| 20260507122931 | 20 | 223 | 0.0 | 321.9 | 0.00 | 0.00 | 0.18 | 73 | 121.5 |
| 20260507122430 | 19 | 194 | 0.0 | 321.9 | 0.00 | 0.00 | 0.18 | 75 | 120.9 |
| 20260507121929 | 18 | 171 | 0.0 | 321.9 | 0.00 | 0.00 | 0.18 | 78 | 120.2 |
| 20260507121428 | 18 | 152 | 0.0 | 321.9 | 0.08 | 0.00 | 0.18 | 82 | 119.7 |
| 20260507120927 | 18 | 138 | 0.0 | 321.9 | 0.08 | 0.00 | 0.18 | 83 | 119.3 |
| 20260507120426 | 18 | 130 | 0.0 | 321.9 | 0.08 | 0.00 | 0.18 | 83 | 119.0 |
| 20260507115926 | 18 | 126 | 0.0 | 321.9 | 0.08 | 0.00 | 0.18 | 84 | 118.9 |
| 20260507114353 | 18 | 130 | 0.0 | 321.9 | 0.18 | 0.00 | 0.18 | 84 | 118.9 |
| 20260507113852 | 18 | 130 | 0.0 | 321.9 | 0.18 | 0.00 | 0.18 | 85 | 118.9 |
| 20260507113351 | 18 | 127 | 0.0 | 321.9 | 0.18 | 0.00 | 0.18 | 84 | 118.9 |
| 20260507112850 | 18 | 121 | 0.0 | 321.9 | 0.18 | 0.00 | 0.18 | 83 | 118.8 |
| 20260507111835 | 18 | 116 | 0.0 | 321.9 | 0.18 | 0.00 | 0.18 | 82 | 118.6 |
| 20260507111332 | 18 | 113 | 0.0 | 321.9 | 0.18 | 0.00 | 0.18 | 83 | 118.5 |
| 20260507110831 | 18 | 115 | 0.0 | 321.9 | 0.08 | 0.00 | 0.08 | 82 | 118.5 |
| 20260507110331 | 18 | 119 | 0.0 | 321.9 | 0.08 | 0.00 | 0.08 | 80 | 118.6 |
| 20260507105830 | 18 | 124 | 0.0 | 321.9 | 0.08 | 0.00 | 0.08 | 79 | 118.7 |
| 20260507105329 | 18 | 129 | 0.0 | 321.9 | 0.08 | 0.00 | 0.08 | 80 | 118.8 |
| 20260507104828 | 18 | 136 | 0.0 | 321.9 | 0.08 | 0.00 | 0.08 | 79 | 119.0 |
| 20260507104327 | 18 | 144 | 0.0 | 321.9 | 0.00 | 0.00 | 0.00 | 78 | 119.2 |
| 20260507103311 | 18 | 165 | 0.0 | 321.9 | 0.00 | 0.00 | 0.00 | 75 | 119.7 |
| 20260507102810 | 19 | 168 | 0.0 | 321.9 | 0.00 | 0.00 | 0.00 | 70 | 119.9 |
| 20260507102309 | 19 | 174 | 0.0 | 321.9 | 0.00 | 0.00 | 0.00 | 68 | 120.0 |
| 20260507101808 | 19 | 176 | 0.0 | 321.9 | 0.00 | 0.00 | 0.00 | 65 | 120.1 |
| 20260507101307 | 19 | 174 | 0.0 | 321.9 | 0.00 | 0.00 | 0.00 | 65 | 120.0 |
| 20260507100806 | 19 | 171 | 0.0 | 321.9 | 0.00 | 0.00 | 0.00 | 66 | 120.0 |
| 20260507100306 | 19 | 169 | 0.0 | 321.9 | 0.00 | 0.00 | 0.00 | 66 | 119.9 |
| 20260507095806 | 19 | 171 | 0.0 | 321.9 | 0.00 | 0.00 | 0.00 | 65 | 120.0 |
| 20260507094749 | 19 | 185 | 0.0 | 321.9 | 0.00 | 0.00 | 0.00 | 62 | 120.2 |
| 20260507094248 | 19 | 193 | 0.0 | 321.9 | 0.00 | 0.00 | 0.00 | 62 | 120.4 |
| 20260507093231 | 20 | 204 | 0.0 | 321.9 | 0.00 | 0.00 | 0.00 | 63 | 120.7 |
| 20260507092730 | 20 | 206 | 0.0 | 321.9 | 0.00 | 0.00 | 0.00 | 62 | 120.8 |
| 20260507092229 | 20 | 202 | 0.0 | 321.9 | 0.00 | 0.00 | 0.00 | 59 | 120.7 |
| 20260507090656 | 19 | 200 | 0.0 | 321.9 | 0.00 | 0.00 | 0.00 | 61 | 120.7 |
| 20260507090155 | 19 | 205 | 0.0 | 321.9 | 0.00 | 0.00 | 0.00 | 60 | 120.7 |
| 20260507085654 | 19 | 209 | 0.0 | 321.9 | 0.00 | 0.00 | 0.00 | 62 | 120.8 |
| 20260507085153 | 19 | 208 | 0.0 | 321.9 | 0.00 | 0.00 | 0.00 | 63 | 120.9 |
| 20260507084652 | 19 | 211 | 0.0 | 321.9 | 0.00 | 0.00 | 0.00 | 64 | 120.9 |
| 20260507084151 | 19 | 218 | 0.0 | 321.9 | 0.00 | 0.00 | 0.00 | 63 | 121.1 |
| 20260507083650 | 19 | 226 | 0.0 | 321.9 | 0.00 | 0.00 | 0.00 | 61 | 121.2 |
| 20260507083149 | 19 | 226 | 0.0 | 321.9 | 0.00 | 0.00 | 0.00 | 64 | 121.3 |
| 20260507082648 | 19 | 224 | 0.0 | 321.9 | 0.00 | 0.00 | 0.00 | 67 | 121.2 |
| 20260507081115 | 19 | 225 | 0.0 | 321.9 | 0.00 | 0.00 | 0.00 | 70 | 121.1 |
| 20260507080615 | 20 | 224 | 0.0 | 321.9 | 0.00 | 0.00 | 0.00 | 69 | 121.2 |
| 20260507075558 | 19 | 214 | 0.0 | 321.9 | 0.00 | 0.00 | 0.00 | 67 | 121.0 |
| 20260507075057 | 19 | 208 | 0.0 | 321.9 | 0.00 | 0.00 | 0.00 | 66 | 120.9 |
| 20260507074556 | 19 | 201 | 0.0 | 321.9 | 0.00 | 0.00 | 0.00 | 67 | 120.7 |
| 20260507074055 | 19 | 196 | 0.0 | 321.9 | 0.00 | 0.00 | 0.00 | 67 | 120.7 |
| 20260507073555 | 18 | 202 | 0.0 | 321.9 | 0.00 | 0.00 | 0.00 | 68 | 120.8 |
| 20260507073054 | 18 | 213 | 0.0 | 321.9 | 0.00 | 0.00 | 0.00 | 68 | 121.0 |
| 20260507072554 | 19 | 225 | 0.0 | 321.9 | 0.00 | 0.00 | 0.00 | 68 | 121.3 |
| 20260507072053 | 19 | 227 | 0.0 | 321.9 | 0.00 | 0.00 | 0.00 | 67 | 121.4 |
| 20260507071553 | 19 | 215 | 0.0 | 321.9 | 0.00 | 0.00 | 0.00 | 67 | 121.3 |
| 20260507071051 | 19 | 197 | 0.0 | 321.9 | 0.00 | 0.00 | 0.00 | 66 | 121.0 |
| 20260507070550 | 19 | 179 | 0.0 | 321.9 | 0.00 | 0.00 | 0.00 | 68 | 120.6 |
| 20260507070050 | 18 | 169 | 0.0 | 321.9 | 0.00 | 0.00 | 0.00 | 71 | 120.2 |
| 20260507065548 | 18 | 168 | 0.0 | 321.9 | 0.00 | 0.00 | 0.00 | 71 | 120.0 |
| 20260507065048 | 18 | 172 | 0.0 | 321.9 | 0.00 | 0.00 | 0.00 | 71 | 120.1 |
| 20260507064546 | 18 | 181 | 0.0 | 321.9 | 0.00 | 0.00 | 0.00 | 71 | 120.3 |
| 20260507064045 | 18 | 187 | 0.0 | 321.9 | 0.00 | 0.00 | 0.00 | 71 | 120.5 |
| 20260507062514 | 18 | 201 | 0.0 | 321.9 | 0.00 | 0.00 | 0.00 | 71 | 121.0 |
| 20260507062013 | 18 | 207 | 0.0 | 321.9 | 0.00 | 0.00 | 0.00 | 70 | 121.2 |
| 20260507061511 | 19 | 204 | 0.0 | 321.9 | 0.00 | 0.00 | 0.00 | 70 | 121.3 |
| 20260507061010 | 18 | 198 | 0.0 | 321.9 | 0.00 | 0.00 | 0.00 | 72 | 121.2 |
| 20260507060510 | 18 | 191 | 0.0 | 321.9 | 0.00 | 0.00 | 0.00 | 69 | 121.0 |
| 20260507055454 | 18 | 165 | 0.0 | 321.9 | 0.00 | 0.00 | 0.00 | 70 | 120.4 |
| 20260507054952 | 18 | 156 | 0.0 | 321.9 | 0.00 | 0.00 | 0.00 | 72 | 120.1 |
| 20260507054451 | 18 | 144 | 0.0 | 321.9 | 0.00 | 0.00 | 0.00 | 73 | 119.9 |
| 20260507053950 | 17 | 134 | 0.0 | 321.9 | 0.00 | 0.00 | 0.00 | 74 | 119.6 |
| 20260507053449 | 17 | 129 | 0.0 | 321.9 | 0.00 | 0.00 | 0.00 | 74 | 119.4 |
| 20260507052948 | 17 | 122 | 0.0 | 321.9 | 0.00 | 0.00 | 0.00 | 75 | 119.2 |
| 20260507052447 | 17 | 116 | 0.0 | 321.9 | 0.00 | 0.00 | 0.00 | 76 | 119.0 |
| 20260507051946 | 16 | 111 | 0.0 | 321.9 | 0.00 | 0.00 | 0.00 | 77 | 118.7 |
| 20260507051446 | 16 | 108 | 0.0 | 321.9 | 0.00 | 0.00 | 0.00 | 77 | 118.5 |
| 20260507050945 | 16 | 100 | 0.0 | 321.9 | 0.00 | 0.00 | 0.00 | 77 | 118.4 |
| 20260507050444 | 16 | 92 | 0.0 | 321.9 | 0.00 | 0.00 | 0.00 | 79 | 118.2 |
| 20260507045942 | 15 | 86 | 0.0 | 321.9 | 0.00 | 0.00 | 0.00 | 79 | 118.1 |
| 20260507045442 | 15 | 79 | 0.0 | 321.9 | 0.00 | 0.00 | 0.00 | 80 | 117.9 |
| 20260507044428 | 15 | 65 | 0.0 | 321.9 | 0.00 | 0.00 | 0.00 | 82 | 117.6 |
| 20260507043407 | 14 | 49 | 0.0 | 321.9 | 0.00 | 0.00 | 0.00 | 82 | 117.4 |
| 20260507042908 | 14 | 42 | 0.0 | 321.9 | 0.00 | 0.00 | 0.00 | 82 | 117.1 |
| 20260507042406 | 13 | 34 | 0.0 | 321.9 | 0.00 | 0.00 | 0.00 | 82 | 117.0 |
| 20260507041906 | 13 | 28 | 0.0 | 321.9 | 0.00 | 0.00 | 0.00 | 82 | 116.8 |
| 20260507041407 | 13 | 23 | 0.0 | 321.9 | 0.00 | 0.00 | 0.00 | 82 | 116.7 |
| 20260507040906 | 13 | 19 | 0.0 | 321.9 | 0.00 | 0.00 | 0.00 | 82 | 116.6 |
| 20260507035849 | 13 | 12 | 0.0 | 321.9 | 0.00 | 0.00 | 0.00 | 81 | 116.4 |
| 20260507035347 | 13 | 11 | 0.0 | 321.9 | 0.00 | 0.00 | 0.00 | 82 | 116.4 |
| 20260507034847 | 13 | 10 | 0.0 | 321.9 | 0.00 | 0.00 | 0.00 | 82 | 116.3 |
| 20260507034346 | 13 | 11 | 0.0 | 321.9 | 0.00 | 0.00 | 0.00 | 83 | 116.4 |
| 20260507033329 | 13 | 12 | 0.0 | 321.9 | 0.00 | 0.00 | 0.00 | 84 | 116.4 |
| 20260507032829 | 13 | 13 | 0.0 | 321.9 | 0.00 | 0.00 | 0.00 | 85 | 116.4 |
| 20260507031257 | 13 | 15 | 0.0 | 321.9 | 0.00 | 0.00 | 0.00 | 85 | 116.5 |
| 20260507030756 | 13 | 16 | 0.0 | 321.9 | 0.00 | 0.00 | 0.00 | 85 | 116.5 |
| 20260507030255 | 13 | 17 | 0.0 | 321.9 | 0.00 | 0.00 | 0.00 | 85 | 116.5 |
| 20260507025753 | 13 | 19 | 0.0 | 321.9 | 0.00 | 0.00 | 0.00 | 85 | 116.6 |
| 20260507025253 | 13 | 21 | 0.0 | 321.9 | 0.00 | 0.00 | 0.00 | 85 | 116.6 |
| 20260507024754 | 13 | 21 | 0.0 | 321.9 | 0.00 | 0.00 | 0.00 | 85 | 116.6 |
| 20260507024251 | 13 | 22 | 0.0 | 321.9 | 0.00 | 0.00 | 0.00 | 85 | 116.6 |
| 20260507023749 | 13 | 23 | 0.0 | 321.9 | 0.00 | 0.00 | 0.00 | 85 | 116.6 |
| 20260507023249 | 13 | 23 | 0.0 | 321.9 | 0.00 | 0.00 | 0.00 | 84 | 116.6 |
| 20260507022749 | 14 | 25 | 0.0 | 321.9 | 0.00 | 0.00 | 0.00 | 84 | 116.6 |
| 20260507022249 | 14 | 27 | 0.0 | 321.9 | 0.00 | 0.00 | 0.00 | 84 | 116.6 |
| 20260507021748 | 14 | 26 | 0.0 | 321.9 | 0.00 | 0.00 | 0.00 | 84 | 116.7 |
| 20260507021247 | 14 | 24 | 0.0 | 321.9 | 0.00 | 0.00 | 0.00 | 84 | 116.6 |
| 20260507020230 | 14 | 19 | 0.0 | 321.9 | 0.00 | 0.00 | 0.00 | 84 | 116.5 |
| 20260507015729 | 14 | 18 | 0.0 | 321.9 | 0.00 | 0.00 | 0.00 | 84 | 116.5 |
| 20260507015228 | 14 | 16 | 0.0 | 321.9 | 0.00 | 0.00 | 0.00 | 84 | 116.5 |
| 20260507014727 | 14 | 15 | 0.0 | 321.9 | 0.00 | 0.00 | 0.00 | 85 | 116.4 |
| 20260507014227 | 14 | 13 | 0.0 | 321.9 | 0.00 | 0.00 | 0.00 | 85 | 116.4 |
| 20260507013726 | 14 | 13 | 0.0 | 321.9 | 0.00 | 0.00 | 0.00 | 85 | 116.4 |
| 20260507013225 | 14 | 12 | 0.0 | 321.9 | 0.00 | 0.00 | 0.00 | 86 | 116.3 |
| 20260507012724 | 14 | 11 | 0.0 | 321.9 | 0.00 | 0.00 | 0.00 | 86 | 116.3 |
| 20260507012223 | 14 | 10 | 0.0 | 321.9 | 0.00 | 0.00 | 0.00 | 86 | 116.3 |
| 20260507011722 | 14 | 8 | 0.0 | 321.9 | 0.00 | 0.00 | 0.00 | 86 | 116.2 |
| 20260507010705 | 14 | 3 | 0.0 | 321.9 | 0.00 | 0.00 | 0.00 | 85 | 116.2 |
| 20260507010205 | 14 | 4 | 0.0 | 321.9 | 0.00 | 0.00 | 0.00 | 85 | 116.2 |
| 20260507005704 | 14 | 9 | 0.0 | 321.9 | 0.00 | 0.00 | 0.00 | 85 | 116.3 |
| 20260507005203 | 14 | 14 | 0.0 | 321.9 | 0.00 | 0.00 | 0.00 | 85 | 116.4 |
| 20260507004702 | 14 | 14 | 0.0 | 321.9 | 0.00 | 0.00 | 0.00 | 85 | 116.4 |
| 20260507004201 | 14 | 17 | 0.0 | 321.9 | 0.00 | 0.00 | 0.00 | 85 | 116.5 |
| 20260507003700 | 14 | 17 | 0.0 | 321.9 | 0.00 | 0.00 | 0.00 | 86 | 116.5 |
| 20260507003159 | 14 | 13 | 0.0 | 321.9 | 0.00 | 0.00 | 0.00 | 86 | 116.4 |
| 20260507002658 | 14 | 10 | 0.0 | 321.9 | 0.00 | 0.00 | 0.00 | 87 | 116.3 |
| 20260507002157 | 14 | 11 | 0.0 | 321.9 | 0.00 | 0.00 | 0.00 | 87 | 116.3 |
| 20260507001656 | 14 | 13 | 0.0 | 321.9 | 0.00 | 0.00 | 0.00 | 87 | 116.3 |
| 20260507001155 | 14 | 15 | 0.0 | 321.9 | 0.00 | 0.00 | 0.00 | 87 | 116.4 |
| 20260507000138 | 14 | 20 | 0.0 | 321.9 | 0.00 | 0.00 | 0.00 | 88 | 116.5 |
| 20260506235637 | 13 | 23 | 0.0 | 321.9 | 0.00 | 0.00 | 0.00 | 89 | 116.6 |
| 20260506235137 | 13 | 24 | 0.0 | 321.9 | 0.00 | 0.00 | 0.00 | 89 | 116.6 |
| 20260506234120 | 13 | 26 | 0.0 | 321.9 | 0.00 | 0.00 | 0.00 | 88 | 116.7 |
| 20260506233619 | 14 | 29 | 0.0 | 321.9 | 0.00 | 0.00 | 0.00 | 88 | 116.8 |
| 20260506233118 | 14 | 31 | 0.0 | 321.9 | 0.00 | 0.00 | 0.00 | 88 | 116.8 |
| 20260506232617 | 14 | 33 | 0.0 | 321.9 | 0.00 | 0.00 | 0.00 | 88 | 116.9 |
| 20260506232116 | 14 | 35 | 0.0 | 321.9 | 0.00 | 0.00 | 0.00 | 88 | 116.9 |
| 20260506231616 | 14 | 39 | 0.0 | 321.9 | 0.00 | 0.00 | 0.00 | 88 | 117.0 |
| 20260506231115 | 14 | 40 | 0.0 | 321.9 | 0.00 | 0.00 | 0.00 | 88 | 117.0 |
| 20260506230614 | 14 | 41 | 0.0 | 321.9 | 0.00 | 0.00 | 0.00 | 88 | 117.1 |
| 20260506230114 | 14 | 43 | 0.0 | 321.9 | 0.00 | 0.00 | 0.00 | 87 | 117.1 |
| 20260506225614 | 15 | 44 | 0.0 | 321.9 | 0.00 | 0.00 | 0.00 | 87 | 117.1 |
| 20260506225114 | 15 | 46 | 0.0 | 321.9 | 0.00 | 0.00 | 0.00 | 87 | 117.1 |
| 20260506224614 | 15 | 47 | 0.0 | 321.9 | 0.00 | 0.00 | 0.00 | 88 | 117.2 |
| 20260506224114 | 15 | 47 | 0.0 | 321.9 | 0.00 | 0.00 | 0.00 | 87 | 117.3 |
| 20260506223613 | 15 | 48 | 0.0 | 321.9 | 0.00 | 0.00 | 0.00 | 87 | 117.2 |
| 20260506223113 | 15 | 49 | 0.0 | 321.9 | 0.00 | 0.00 | 0.00 | 86 | 117.2 |
| 20260506222612 | 15 | 48 | 0.0 | 321.9 | 0.00 | 0.00 | 0.00 | 85 | 117.2 |
| 20260506222112 | 15 | 47 | 0.0 | 321.9 | 0.00 | 0.00 | 0.00 | 85 | 117.1 |
| 20260506221612 | 15 | 46 | 0.0 | 321.9 | 0.00 | 0.00 | 0.00 | 85 | 117.1 |
| 20260506220039 | 15 | 41 | 0.0 | 321.9 | 0.00 | 0.00 | 0.00 | 85 | 117.0 |
| 20260506215539 | 16 | 41 | 0.0 | 321.9 | 0.00 | 0.00 | 0.00 | 85 | 116.9 |
| 20260506215038 | 16 | 42 | 0.0 | 321.9 | 0.00 | 0.00 | 0.00 | 85 | 117.0 |
| 20260506214021 | 16 | 46 | 0.0 | 321.9 | 0.00 | 0.00 | 0.00 | 86 | 117.1 |
| 20260506212450 | 16 | 52 | 0.0 | 321.9 | 0.00 | 0.00 | 0.00 | 84 | 117.2 |
| 20260506211949 | 16 | 54 | 0.0 | 321.9 | 0.00 | 0.00 | 0.00 | 85 | 117.3 |
| 20260506211449 | 16 | 54 | 0.0 | 321.9 | 0.00 | 0.00 | 0.00 | 85 | 117.3 |
| 20260506210948 | 16 | 55 | 0.0 | 321.9 | 0.00 | 0.00 | 0.00 | 85 | 117.3 |
| 20260506210447 | 16 | 57 | 0.0 | 321.9 | 0.00 | 0.00 | 0.00 | 85 | 117.4 |
| 20260506205945 | 16 | 64 | 0.0 | 321.9 | 0.00 | 0.00 | 0.00 | 85 | 117.5 |
| 20260506205444 | 16 | 71 | 0.0 | 321.9 | 0.00 | 0.00 | 0.00 | 85 | 117.7 |
| 20260506204944 | 16 | 75 | 0.0 | 321.9 | 0.00 | 0.00 | 0.00 | 85 | 117.7 |
| 20260506204444 | 16 | 76 | 0.0 | 321.9 | 0.00 | 0.00 | 0.00 | 85 | 117.7 |
| 20260506203943 | 16 | 75 | 0.0 | 321.9 | 0.00 | 0.00 | 0.00 | 85 | 117.7 |
| 20260506202926 | 16 | 76 | 0.0 | 321.9 | 0.00 | 0.00 | 0.00 | 84 | 117.7 |
| 20260506202425 | 16 | 75 | 0.0 | 321.9 | 0.00 | 0.00 | 0.00 | 84 | 117.7 |
| 20260506201924 | 16 | 78 | 0.0 | 321.9 | 0.00 | 0.00 | 0.00 | 84 | 117.8 |
| 20260506200909 | 16 | 80 | 0.0 | 321.9 | 0.00 | 0.00 | 0.00 | 84 | 117.9 |
| 20260506200408 | 16 | 82 | 0.0 | 321.9 | 0.00 | 0.00 | 0.00 | 84 | 118.0 |
| 20260506195907 | 16 | 88 | 0.0 | 321.9 | 0.00 | 0.00 | 0.00 | 84 | 118.0 |
| 20260506195407 | 16 | 88 | 0.0 | 321.9 | 0.00 | 0.00 | 0.00 | 84 | 118.1 |
| 20260506194907 | 16 | 88 | 0.0 | 321.9 | 0.00 | 0.00 | 0.00 | 84 | 118.0 |
| 20260506193851 | 16 | 89 | 0.0 | 321.9 | 0.00 | 0.00 | 0.00 | 83 | 118.1 |
| 20260506193350 | 17 | 91 | 0.0 | 321.9 | 0.00 | 0.00 | 0.00 | 84 | 118.1 |
| 20260506192849 | 17 | 93 | 0.0 | 321.9 | 0.00 | 0.00 | 0.00 | 84 | 118.2 |
| 20260506191833 | 17 | 97 | 0.0 | 321.9 | 0.00 | 0.00 | 0.00 | 84 | 118.2 |
| 20260506191332 | 17 | 96 | 0.0 | 321.9 | 0.00 | 0.00 | 0.00 | 83 | 118.2 |
| 20260506190831 | 17 | 95 | 0.0 | 321.9 | 0.00 | 0.00 | 0.00 | 83 | 118.2 |
| 20260506190330 | 17 | 96 | 0.0 | 321.9 | 0.00 | 0.00 | 0.00 | 83 | 118.2 |
| 20260506185829 | 17 | 97 | 0.0 | 321.9 | 0.00 | 0.00 | 0.00 | 83 | 118.2 |
| 20260506185328 | 17 | 97 | 0.0 | 321.9 | 0.00 | 0.00 | 0.00 | 83 | 118.3 |
| 20260506184827 | 17 | 98 | 0.0 | 321.9 | 0.00 | 0.00 | 0.00 | 83 | 118.3 |
| 20260506183811 | 17 | 104 | 0.0 | 321.9 | 0.00 | 0.00 | 0.00 | 83 | 118.4 |
| 20260506183311 | 17 | 109 | 0.0 | 321.9 | 0.00 | 0.00 | 0.00 | 83 | 118.5 |
| 20260506182810 | 17 | 116 | 0.0 | 321.9 | 0.00 | 0.00 | 0.00 | 83 | 118.7 |
| 20260506182310 | 17 | 122 | 0.0 | 321.9 | 0.00 | 0.00 | 0.00 | 83 | 118.8 |
| 20260506181253 | 17 | 136 | 0.0 | 321.9 | 0.00 | 0.00 | 0.00 | 83 | 119.2 |
| 20260506180752 | 17 | 143 | 0.0 | 321.9 | 0.00 | 0.00 | 0.00 | 82 | 119.3 |
| 20260506180252 | 17 | 151 | 0.0 | 321.9 | 0.00 | 0.00 | 0.00 | 81 | 119.5 |
| 20260506175751 | 17 | 159 | 0.0 | 321.9 | 0.00 | 0.00 | 0.00 | 80 | 119.7 |
| 20260506175250 | 17 | 168 | 0.0 | 321.9 | 0.00 | 0.00 | 0.00 | 79 | 119.9 |
| 20260506173717 | 18 | 205 | 0.0 | 321.9 | 0.00 | 0.00 | 0.00 | 76 | 120.7 |
| 20260506173217 | 19 | 217 | 0.0 | 321.9 | 0.00 | 0.00 | 0.00 | 75 | 120.9 |
| 20260506172717 | 19 | 231 | 0.0 | 321.9 | 0.00 | 0.00 | 0.00 | 74 | 121.3 |
| 20260506172217 | 20 | 244 | 0.0 | 321.9 | 0.00 | 0.00 | 0.00 | 73 | 121.5 |
| 20260506171717 | 20 | 257 | 0.0 | 321.9 | 0.00 | 0.00 | 0.00 | 72 | 121.8 |
| 20260506171216 | 20 | 270 | 0.0 | 321.9 | 0.00 | 0.00 | 0.00 | 71 | 122.0 |
| 20260506170715 | 21 | 280 | 0.0 | 321.9 | 0.00 | 0.00 | 0.00 | 70 | 122.2 |
| 20260506170214 | 21 | 285 | 0.0 | 321.9 | 0.00 | 0.00 | 0.00 | 69 | 122.3 |
| 20260506165713 | 21 | 294 | 0.0 | 321.9 | 0.00 | 0.00 | 0.00 | 69 | 122.5 |
| 20260506165212 | 21 | 306 | 0.0 | 321.9 | 0.00 | 0.00 | 0.00 | 68 | 122.6 |
| 20260506164712 | 21 | 314 | 0.0 | 321.9 | 0.00 | 0.00 | 0.00 | 67 | 122.8 |
| 20260506164211 | 22 | 326 | 0.0 | 321.9 | 0.00 | 0.00 | 0.00 | 65 | 123.1 |
| 20260506163710 | 22 | 342 | 0.0 | 321.9 | 0.00 | 0.00 | 0.00 | 63 | 123.4 |
| 20260506163209 | 22 | 355 | 0.0 | 321.9 | 0.00 | 0.00 | 0.00 | 61 | 123.6 |
| 20260506162709 | 23 | 357 | 0.0 | 321.9 | 0.00 | 0.00 | 0.00 | 57 | 123.6 |
| 20260506162208 | 23 | 0 | 0.0 | 321.9 | 0.00 | 0.00 | 0.00 | 55 | 123.7 |
| 20260506161151 | 23 | 10 | 0.0 | 321.9 | 0.00 | 0.00 | 0.00 | 42 | 123.9 |
| 20260506160650 | 24 | 15 | 0.0 | 321.9 | 0.00 | 0.00 | 0.00 | 42 | 124.0 |
| 20260506155635 | 24 | 26 | 0.0 | 321.9 | 0.00 | 0.00 | 0.00 | 40 | 124.2 |
| 20260506155134 | 24 | 32 | 0.0 | 321.9 | 0.00 | 0.00 | 0.00 | 40 | 124.4 |
| 20260506154633 | 24 | 40 | 0.0 | 321.9 | 0.00 | 0.00 | 0.00 | 43 | 124.5 |
| 20260506154132 | 25 | 45 | 0.0 | 321.9 | 0.00 | 0.00 | 0.00 | 41 | 124.6 |
| 20260506153631 | 25 | 47 | 0.0 | 321.9 | 0.00 | 0.00 | 0.00 | 43 | 124.6 |
| 20260506152614 | 25 | 54 | 0.0 | 321.9 | 0.00 | 0.00 | 0.00 | 42 | 124.8 |
| 20260506152114 | 25 | 56 | 0.0 | 321.9 | 0.00 | 0.00 | 0.00 | 41 | 124.8 |
| 20260506151614 | 25 | 56 | 0.0 | 321.9 | 0.00 | 0.00 | 0.00 | 40 | 124.9 |
| 20260506151113 | 25 | 56 | 0.0 | 321.9 | 0.00 | 0.00 | 0.00 | 41 | 124.8 |
| 20260506150612 | 25 | 56 | 0.0 | 321.9 | 0.00 | 0.00 | 0.00 | 41 | 124.9 |
| 20260506150111 | 25 | 59 | 0.0 | 321.9 | 0.00 | 0.00 | 0.00 | 42 | 125.0 |
| 20260506145610 | 25 | 66 | 0.0 | 321.9 | 0.00 | 0.00 | 0.00 | 41 | 125.1 |
| 20260506145109 | 25 | 74 | 0.0 | 321.9 | 0.00 | 0.00 | 0.00 | 40 | 125.2 |
| 20260506144609 | 25 | 76 | 0.0 | 321.9 | 0.00 | 0.00 | 0.00 | 41 | 125.3 |
| 20260506144109 | 25 | 78 | 0.0 | 321.9 | 0.00 | 0.00 | 0.00 | 39 | 125.4 |
| 20260506143609 | 25 | 75 | 0.0 | 321.9 | 0.00 | 0.00 | 0.00 | 41 | 125.3 |
| 20260506143108 | 26 | 72 | 0.0 | 321.9 | 0.00 | 0.00 | 0.00 | 40 | 125.2 |
| 20260506142607 | 26 | 73 | 0.0 | 321.9 | 0.00 | 0.00 | 0.00 | 41 | 125.2 |
| 20260506142106 | 26 | 69 | 0.0 | 321.9 | 0.00 | 0.00 | 0.00 | 40 | 125.2 |
| 20260506141605 | 25 | 66 | 0.0 | 321.9 | 0.00 | 0.00 | 0.00 | 43 | 125.2 |
| 20260506141104 | 25 | 66 | 0.0 | 321.9 | 0.00 | 0.00 | 0.00 | 41 | 125.2 |
| 20260506140604 | 25 | 66 | 0.0 | 321.9 | 0.00 | 0.00 | 0.00 | 40 | 125.2 |
| 20260506140103 | 25 | 66 | 0.0 | 321.9 | 0.00 | 0.00 | 0.00 | 39 | 125.2 |
| 20260506135602 | 25 | 67 | 0.0 | 321.9 | 0.00 | 0.00 | 0.00 | 39 | 125.2 |
| 20260506135101 | 25 | 68 | 0.0 | 321.9 | 0.00 | 0.00 | 0.00 | 39 | 125.2 |
| 20260506134600 | 25 | 73 | 0.0 | 321.9 | 0.00 | 0.00 | 0.00 | 40 | 125.3 |
| 20260506134100 | 26 | 78 | 0.0 | 321.9 | 0.00 | 0.00 | 0.00 | 37 | 125.4 |
| 20260506133559 | 26 | 76 | 0.0 | 321.9 | 0.00 | 0.00 | 0.00 | 37 | 125.4 |